createdAt,value
2024-05-09T00:00:35.478Z,6.68
2024-05-09T00:03:07.245Z,5.97
2024-05-09T00:05:34.077Z,6.88
2024-05-09T00:08:00.862Z,6.35
2024-05-09T00:10:35.376Z,6.28
2024-05-09T00:13:04.668Z,6.53
2024-05-09T00:15:31.568Z,6.22
2024-05-09T00:17:58.266Z,6.32
2024-05-09T00:20:33.054Z,5.95
2024-05-09T00:23:06.680Z,6.47
2024-05-09T00:25:33.411Z,6.63
2024-05-09T00:27:59.886Z,5.90
2024-05-09T00:30:33.445Z,5.93
2024-05-09T00:33:02.801Z,6.40
2024-05-09T00:35:29.666Z,6.75
2024-05-09T00:37:56.258Z,6.72
2024-05-09T00:40:30.977Z,7.25
2024-05-09T00:43:07.752Z,7.22
2024-05-09T00:45:34.759Z,6.45
2024-05-09T00:48:02.445Z,6.88
2024-05-09T00:50:35.728Z,6.13
2024-05-09T00:53:04.780Z,6.32
2024-05-09T00:55:31.297Z,6.95
2024-05-09T00:57:57.787Z,6.40
2024-05-09T01:00:31.571Z,7.10
2024-05-09T01:03:04.917Z,6.90
2024-05-09T01:05:32.489Z,7.32
2024-05-09T01:07:59.084Z,7.28
2024-05-09T01:10:33.440Z,6.82
2024-05-09T01:13:01.681Z,6.72
2024-05-09T01:15:28.176Z,7.10
2024-05-09T01:17:56.302Z,7.85
2024-05-09T01:20:32.182Z,6.25
2024-05-09T01:23:07.214Z,6.95
2024-05-09T01:25:33.773Z,6.20
2024-05-09T01:28:00.211Z,6.70
2024-05-09T01:30:33.783Z,6.75
2024-05-09T01:33:02.974Z,6.85
2024-05-09T01:35:29.775Z,7.30
2024-05-09T01:37:56.363Z,6.38
2024-05-09T01:40:32.695Z,5.78
2024-05-09T01:43:03.351Z,6.45
2024-05-09T01:45:29.807Z,6.55
2024-05-09T01:47:56.503Z,6.70
2024-05-09T01:50:34.270Z,6.15
2024-05-09T01:53:05.611Z,6.68
2024-05-09T01:55:32.189Z,6.80
2024-05-09T01:57:58.684Z,6.35
2024-05-09T02:00:36.427Z,7.72
2024-05-09T02:03:11.773Z,6.25
2024-05-09T02:05:41.266Z,6.35
2024-05-09T02:08:12.180Z,7.50
2024-05-09T02:10:38.736Z,8.05
2024-05-09T02:13:07.632Z,7.03
2024-05-09T02:15:34.102Z,6.57
2024-05-09T02:18:00.858Z,6.60
2024-05-09T02:20:34.223Z,6.60
2024-05-09T02:23:05.060Z,6.60
2024-05-09T02:25:32.426Z,6.57
2024-05-09T02:27:59.142Z,6.88
2024-05-09T02:30:35.711Z,6.57
2024-05-09T02:33:06.819Z,6.55
2024-05-09T02:35:33.876Z,6.47
2024-05-09T02:38:00.608Z,6.35
2024-05-09T02:40:35.656Z,6.28
2024-05-09T02:43:04.805Z,6.32
2024-05-09T02:45:31.273Z,6.93
2024-05-09T02:47:58.017Z,7.43
2024-05-09T02:50:33.153Z,6.88
2024-05-09T02:53:04.348Z,6.90
2024-05-09T02:55:30.944Z,6.40
2024-05-09T02:57:57.515Z,6.50
2024-05-09T03:00:30.034Z,6.00
2024-05-09T03:03:04.967Z,6.15
2024-05-09T03:05:31.758Z,5.90
2024-05-09T03:07:58.395Z,5.57
2024-05-09T03:10:28.635Z,7.38
2024-05-09T03:12:55.809Z,6.03
2024-05-09T03:15:22.719Z,6.10
2024-05-09T03:17:49.612Z,6.72
2024-05-09T03:20:23.327Z,6.22
2024-05-09T03:22:52.729Z,6.47
2024-05-09T03:25:20.603Z,6.35
2024-05-09T03:27:47.068Z,6.13
2024-05-09T03:30:25.931Z,5.80
2024-05-09T03:33:00.291Z,6.22
2024-05-09T03:35:26.888Z,6.78
2024-05-09T03:37:53.422Z,6.90
2024-05-09T03:40:23.814Z,6.47
2024-05-09T03:42:53.077Z,6.57
2024-05-09T03:45:19.603Z,7.13
2024-05-09T03:47:46.456Z,7.15
2024-05-09T03:50:21.928Z,7.20
2024-05-09T03:52:52.451Z,7.60
2024-05-09T03:55:18.973Z,7.20
2024-05-09T03:57:45.426Z,7.13
2024-05-09T04:00:17.973Z,8.10
2024-05-09T04:02:52.274Z,8.13
2024-05-09T04:05:18.882Z,7.80
2024-05-09T04:07:45.863Z,8.02
2024-05-09T04:10:21.017Z,8.40
2024-05-09T04:12:54.503Z,8.40
2024-05-09T04:15:21.102Z,9.23
2024-05-09T04:17:51.351Z,8.52
2024-05-09T04:20:28.222Z,8.95
2024-05-09T04:23:00.795Z,10.63
2024-05-09T04:25:27.276Z,9.38
2024-05-09T04:27:55.963Z,9.18
2024-05-09T04:30:34.094Z,8.80
2024-05-09T04:33:05.147Z,9.18
2024-05-09T04:35:31.907Z,9.10
2024-05-09T04:37:58.554Z,9.27
2024-05-09T04:40:32.854Z,8.90
2024-05-09T04:43:02.069Z,8.27
2024-05-09T04:45:28.516Z,8.60
2024-05-09T04:47:55.244Z,8.40
2024-05-09T04:50:30.030Z,10.43
2024-05-09T04:53:02.921Z,8.20
2024-05-09T04:55:29.459Z,8.90
2024-05-09T04:57:55.928Z,9.25
2024-05-09T05:00:31.772Z,8.48
2024-05-09T05:03:05.938Z,9.00
2024-05-09T05:05:32.812Z,8.57
2024-05-09T05:07:59.355Z,8.20
2024-05-09T05:10:33.550Z,7.85
2024-05-09T05:13:17.962Z,8.95
2024-05-09T05:15:58.352Z,8.52
2024-05-09T05:18:25.978Z,8.02
2024-05-09T05:20:53.029Z,8.00
2024-05-09T05:23:20.252Z,7.25
2024-05-09T05:25:48.094Z,7.72
2024-05-09T05:28:18.172Z,7.97
2024-05-09T05:30:44.922Z,8.35
2024-05-09T05:33:12.923Z,8.63
2024-05-09T05:35:40.044Z,8.80
2024-05-09T05:38:07.394Z,9.68
2024-05-09T05:40:37.162Z,9.32
2024-05-09T05:43:25.241Z,8.30
2024-05-09T05:45:51.838Z,8.93
2024-05-09T05:48:18.903Z,9.65
2024-05-09T05:50:45.761Z,9.80
2024-05-09T05:53:12.506Z,10.65
2024-05-09T05:55:39.714Z,11.25
2024-05-09T05:58:11.136Z,10.25
2024-05-09T06:00:39.883Z,11.80
2024-05-09T06:03:08.197Z,10.85
2024-05-09T06:05:36.181Z,10.15
2024-05-09T06:08:02.827Z,12.10
2024-05-09T06:10:37.494Z,12.07
2024-05-09T06:13:06.576Z,12.07
2024-05-09T06:15:33.125Z,12.07
2024-05-09T06:17:59.752Z,12.50
2024-05-09T06:20:34.828Z,11.15
2024-05-09T06:23:04.148Z,12.65
2024-05-09T06:25:30.739Z,12.43
2024-05-09T06:27:57.232Z,11.40
2024-05-09T06:30:35.044Z,11.85
2024-05-09T06:35:33.523Z,10.30
2024-05-09T06:38:00.418Z,11.05
2024-05-09T06:40:36.075Z,11.90
2024-05-09T06:43:05.346Z,10.25
2024-05-09T06:45:31.832Z,12.10
2024-05-09T06:47:58.858Z,11.57
2024-05-09T06:50:28.519Z,11.13
2024-05-09T06:53:01.825Z,11.43
2024-05-09T06:55:28.325Z,10.23
2024-05-09T06:57:54.826Z,11.35
2024-05-09T07:00:27.578Z,10.98
2024-05-09T07:03:05.371Z,10.30
2024-05-09T07:05:33.329Z,10.73
2024-05-09T07:08:00.038Z,10.45
2024-05-09T07:10:32.845Z,10.60
2024-05-09T07:13:01.822Z,9.48
2024-05-09T07:15:28.293Z,10.65
2024-05-09T07:17:54.891Z,10.63
2024-05-09T07:20:31.401Z,10.38
2024-05-09T07:23:00.879Z,10.57
2024-05-09T07:25:27.412Z,10.30
2024-05-09T07:27:53.865Z,9.68
2024-05-09T07:30:27.633Z,10.63
2024-05-09T07:32:59.923Z,9.73
2024-05-09T07:35:26.904Z,9.25
2024-05-09T07:37:53.608Z,9.23
2024-05-09T07:42:49.644Z,10.38
2024-05-09T07:45:38.990Z,10.25
2024-05-09T07:52:23.021Z,9.15
2024-05-09T07:53:38.375Z,9.43
2024-05-09T07:56:05.673Z,8.73
2024-05-09T07:58:32.350Z,8.13
2024-05-09T08:00:59.021Z,8.15
2024-05-09T08:03:25.573Z,7.47
2024-05-09T08:05:52.209Z,6.95
2024-05-09T08:08:18.816Z,7.30
2024-05-09T08:10:45.600Z,7.40
2024-05-09T08:13:12.216Z,7.70
2024-05-09T08:15:39.369Z,7.70
2024-05-09T08:18:09.788Z,7.15
2024-05-09T08:20:40.153Z,6.28
2024-05-09T08:23:07.031Z,7.50
2024-05-09T08:25:33.499Z,7.40
2024-05-09T08:28:00.088Z,7.60
2024-05-09T08:30:33.438Z,7.22
2024-05-09T08:33:04.174Z,7.00
2024-05-09T08:35:30.817Z,7.00
2024-05-09T08:37:57.871Z,8.30
2024-05-09T08:40:31.062Z,7.65
2024-05-09T08:43:02.551Z,7.45
2024-05-09T08:45:29.422Z,7.35
2024-05-09T08:47:56.523Z,8.48
2024-05-09T08:50:32.062Z,7.53
2024-05-09T08:53:04.885Z,7.80
2024-05-09T08:55:31.454Z,7.57
2024-05-09T08:57:59.160Z,7.75
2024-05-09T09:00:35.605Z,8.43
2024-05-09T09:03:05.754Z,7.63
2024-05-09T09:05:34.069Z,7.90
2024-05-09T09:08:03.714Z,8.40
2024-05-09T09:10:32.365Z,7.78
2024-05-09T09:13:09.407Z,7.82
2024-05-09T09:15:46.683Z,8.13
2024-05-09T09:18:13.674Z,7.53
2024-05-09T09:20:40.348Z,6.80
2024-05-09T09:23:07.826Z,7.43
2024-05-09T09:25:34.330Z,7.30
2024-05-09T09:28:00.909Z,8.05
2024-05-09T09:30:35.260Z,6.75
2024-05-09T09:33:04.881Z,7.07
2024-05-09T09:35:31.580Z,7.13
2024-05-09T09:38:01.559Z,6.28
2024-05-09T09:40:32.266Z,5.93
2024-05-09T09:43:01.360Z,6.18
2024-05-09T09:45:32.438Z,6.78
2024-05-09T09:47:59.128Z,7.20
2024-05-09T09:50:33.345Z,6.70
2024-05-09T09:53:01.412Z,7.47
2024-05-09T09:55:28.367Z,6.38
2024-05-09T09:57:55.800Z,7.18
2024-05-09T10:00:27.469Z,6.38
2024-05-09T10:02:59.069Z,6.20
2024-05-09T10:05:26.234Z,5.65
2024-05-09T10:07:53.800Z,5.70
2024-05-09T10:10:31.659Z,5.45
2024-05-09T10:13:06.935Z,6.05
2024-05-09T10:15:45.260Z,5.85
2024-05-09T10:18:11.964Z,6.05
2024-05-09T10:20:45.127Z,5.25
2024-05-09T10:23:27.511Z,4.63
2024-05-09T10:26:01.172Z,5.20
2024-05-09T10:28:28.286Z,5.85
2024-05-09T10:31:11.517Z,5.20
2024-05-09T10:33:39.302Z,4.53
2024-05-09T10:36:12.659Z,6.25
2024-05-09T10:38:40.055Z,5.32
2024-05-09T10:41:06.690Z,5.22
2024-05-09T10:43:33.243Z,5.55
2024-05-09T10:45:59.796Z,5.60
2024-05-09T10:48:26.989Z,5.00
2024-05-09T10:50:53.570Z,5.05
2024-05-09T10:53:20.026Z,4.80
2024-05-09T10:56:06.735Z,5.65
2024-05-09T10:58:33.284Z,6.72
2024-05-09T11:01:01.189Z,6.32
2024-05-09T11:03:28.962Z,7.30
2024-05-09T11:05:55.780Z,6.50
2024-05-09T11:08:23.075Z,7.90
2024-05-09T11:10:53.506Z,6.75
2024-05-09T11:13:33.252Z,6.20
2024-05-09T11:16:00.082Z,5.22
2024-05-09T11:18:33.459Z,4.80
2024-05-09T11:21:02.844Z,5.82
2024-05-09T11:23:32.348Z,4.75
2024-05-09T11:25:59.125Z,5.50
2024-05-09T11:28:26.787Z,5.28
2024-05-09T11:31:05.063Z,5.13
2024-05-09T11:33:31.665Z,5.20
2024-05-09T11:35:58.358Z,6.00
2024-05-09T11:38:24.885Z,6.97
2024-05-09T11:40:51.425Z,7.65
2024-05-09T11:43:18.058Z,7.13
2024-05-09T11:45:44.603Z,7.63
2024-05-09T11:48:11.168Z,7.60
2024-05-09T11:50:37.977Z,8.45
2024-05-09T11:53:04.609Z,7.50
2024-05-09T11:55:31.196Z,7.43
2024-05-09T11:57:57.718Z,8.02
2024-05-09T12:00:33.646Z,7.85
2024-05-09T12:03:05.173Z,7.22
2024-05-09T12:05:32.647Z,7.20
2024-05-09T12:07:59.473Z,7.38
2024-05-09T12:10:32.319Z,7.05
2024-05-09T12:13:01.554Z,7.00
2024-05-09T12:15:28.109Z,6.88
2024-05-09T12:17:55.967Z,6.63
2024-05-09T12:20:32.162Z,6.93
2024-05-09T12:23:02.473Z,7.40
2024-05-09T12:25:28.964Z,6.72
2024-05-09T12:27:55.575Z,6.25
2024-05-09T12:30:32.654Z,8.25
2024-05-09T12:35:30.405Z,7.30
2024-05-09T12:37:56.910Z,6.88
2024-05-09T12:40:31.809Z,7.68
2024-05-09T12:43:02.950Z,7.15
2024-05-09T12:45:29.544Z,8.38
2024-05-09T12:47:56.141Z,7.90
2024-05-09T12:50:29.897Z,7.32
2024-05-09T12:52:59.422Z,7.25
2024-05-09T12:55:25.966Z,7.07
2024-05-09T12:57:52.649Z,6.93
2024-05-09T13:00:24.117Z,8.10
2024-05-09T13:02:57.698Z,7.93
2024-05-09T13:05:24.681Z,7.65
2024-05-09T13:07:51.316Z,7.38
2024-05-09T13:10:25.575Z,6.78
2024-05-09T13:12:58.104Z,8.25
2024-05-09T13:15:24.590Z,8.80
2024-05-09T13:17:51.133Z,7.72
2024-05-09T13:20:26.088Z,7.30
2024-05-09T13:22:59.908Z,8.20
2024-05-09T13:25:26.441Z,8.18
2024-05-09T13:27:53.072Z,7.93
2024-05-09T13:30:28.734Z,8.50
2024-05-09T13:33:02.005Z,7.65
2024-05-09T13:35:28.653Z,7.22
2024-05-09T13:37:55.162Z,6.88
2024-05-09T13:40:29.998Z,8.23
2024-05-09T13:43:01.877Z,7.75
2024-05-09T13:45:28.507Z,7.70
2024-05-09T13:47:55.138Z,7.60
2024-05-09T13:50:30.931Z,8.02
2024-05-09T13:53:01.475Z,8.57
2024-05-09T13:55:28.049Z,7.13
2024-05-09T13:57:55.499Z,8.00
2024-05-09T14:00:37.632Z,7.80
2024-05-09T14:03:08.925Z,7.63
2024-05-09T14:05:35.673Z,8.27
2024-05-09T14:08:02.282Z,9.65
2024-05-09T14:10:31.346Z,8.65
2024-05-09T14:12:58.891Z,7.70
2024-05-09T14:15:25.434Z,9.30
2024-05-09T14:17:52.081Z,7.65
2024-05-09T14:20:28.297Z,9.02
2024-05-09T14:22:58.043Z,9.70
2024-05-09T14:25:26.455Z,9.05
2024-05-09T14:27:53.307Z,9.10
2024-05-09T14:30:29.588Z,9.18
2024-05-09T14:33:01.175Z,8.93
2024-05-09T14:35:27.838Z,8.35
2024-05-09T14:37:54.315Z,8.43
2024-05-09T14:40:34.934Z,8.80
2024-05-09T14:43:06.498Z,9.98
2024-05-09T14:45:34.508Z,9.35
2024-05-09T14:48:01.456Z,8.70
2024-05-09T14:50:35.071Z,9.20
2024-05-09T14:53:05.830Z,8.90
2024-05-09T14:55:35.489Z,12.38
2024-05-09T14:58:02.933Z,17.13
2024-05-09T15:00:35.403Z,10.55
2024-05-09T15:03:03.432Z,8.85
2024-05-09T15:05:30.168Z,9.18
2024-05-09T15:07:57.284Z,9.38
2024-05-09T15:10:31.550Z,8.50
2024-05-09T15:13:01.846Z,8.40
2024-05-09T15:15:28.337Z,9.63
2024-05-09T15:17:55.323Z,8.15
2024-05-09T15:20:30.920Z,7.03
2024-05-09T15:23:01.869Z,7.63
2024-05-09T15:25:28.512Z,8.52
2024-05-09T15:27:55.211Z,8.98
2024-05-09T15:30:29.934Z,8.55
2024-05-09T15:32:59.046Z,8.23
2024-05-09T15:35:25.574Z,8.43
2024-05-09T15:37:52.057Z,9.27
2024-05-09T15:40:26.570Z,8.98
2024-05-09T15:43:02.812Z,8.73
2024-05-09T15:45:29.671Z,7.40
2024-05-09T15:47:56.867Z,7.95
2024-05-09T15:50:32.820Z,8.23
2024-05-09T15:53:04.883Z,7.20
2024-05-09T15:55:33.998Z,8.55
2024-05-09T15:58:01.762Z,9.15
2024-05-09T16:00:36.541Z,9.07
2024-05-09T16:03:06.820Z,8.77
2024-05-09T16:05:33.620Z,9.52
2024-05-09T16:08:00.380Z,9.10
2024-05-09T16:10:32.371Z,10.13
2024-05-09T16:13:00.496Z,9.63
2024-05-09T16:15:27.066Z,9.25
2024-05-09T16:17:54.009Z,9.23
2024-05-09T16:20:33.253Z,10.55
2024-05-09T16:23:04.960Z,10.13
2024-05-09T16:25:31.464Z,10.98
2024-05-09T16:27:58.151Z,10.57
2024-05-09T16:30:31.744Z,10.68
2024-05-09T16:33:01.888Z,10.75
2024-05-09T16:35:28.647Z,10.75
2024-05-09T16:37:55.176Z,10.98
2024-05-09T16:40:29.780Z,10.90
2024-05-09T16:43:03.848Z,10.90
2024-05-09T16:45:30.694Z,12.00
2024-05-09T16:47:57.318Z,12.55
2024-05-09T16:50:29.398Z,11.93
2024-05-09T16:52:59.459Z,12.10
2024-05-09T16:55:26.079Z,12.48
2024-05-09T16:57:52.756Z,12.90
2024-05-09T17:00:30.879Z,13.02
2024-05-09T17:03:05.942Z,13.43
2024-05-09T17:05:33.043Z,13.75
2024-05-09T17:07:59.971Z,12.80
2024-05-09T17:10:32.174Z,13.07
2024-05-09T17:13:00.954Z,12.43
2024-05-09T17:15:27.565Z,12.60
2024-05-09T17:17:54.235Z,15.23
2024-05-09T17:20:29.389Z,14.75
2024-05-09T17:23:00.337Z,14.63
2024-05-09T17:25:26.907Z,14.48
2024-05-09T17:27:53.753Z,14.95
2024-05-09T17:30:28.687Z,13.63
2024-05-09T17:33:00.968Z,12.90
2024-05-09T17:35:27.654Z,13.20
2024-05-09T17:37:54.438Z,13.73
2024-05-09T17:40:27.854Z,13.57
2024-05-09T17:42:59.835Z,13.80
2024-05-09T17:45:26.419Z,13.30
2024-05-09T17:47:53.242Z,13.98
2024-05-09T17:50:27.348Z,12.80
2024-05-09T17:53:00.404Z,12.65
2024-05-09T17:55:26.991Z,13.73
2024-05-09T17:57:53.589Z,12.80
2024-05-09T18:00:28.970Z,14.18
2024-05-09T18:03:03.647Z,13.82
2024-05-09T18:05:30.422Z,14.00
2024-05-09T18:07:57.302Z,14.13
2024-05-09T18:10:30.089Z,14.15
2024-05-09T18:13:02.606Z,14.60
2024-05-09T18:15:29.151Z,15.43
2024-05-09T18:17:55.743Z,15.40
2024-05-09T18:20:32.713Z,15.25
2024-05-09T18:23:07.484Z,14.85
2024-05-09T18:25:34.269Z,14.60
2024-05-09T18:28:01.803Z,14.00
2024-05-09T18:30:34.369Z,14.23
2024-05-09T18:33:03.325Z,13.70
2024-05-09T18:35:30.057Z,14.32
2024-05-09T18:37:56.608Z,15.02
2024-05-09T18:40:31.026Z,14.65
2024-05-09T18:43:01.516Z,14.77
2024-05-09T18:45:31.021Z,14.50
2024-05-09T18:47:57.885Z,16.05
2024-05-09T18:50:33.724Z,15.07
2024-05-09T18:53:05.670Z,16.25
2024-05-09T18:55:32.235Z,15.05
2024-05-09T18:57:58.846Z,15.52
2024-05-09T19:00:33.545Z,15.68
2024-05-09T19:03:05.594Z,14.95
2024-05-09T19:05:33.124Z,14.57
2024-05-09T19:08:00.003Z,16.00
2024-05-09T19:10:33.619Z,15.68
2024-05-09T19:13:04.397Z,15.20
2024-05-09T19:15:34.343Z,16.52
2024-05-09T19:18:00.998Z,16.00
2024-05-09T19:20:33.398Z,16.50
2024-05-09T19:23:01.448Z,16.15
2024-05-09T19:25:27.913Z,15.95
2024-05-09T19:27:54.481Z,15.93
2024-05-09T19:30:29.801Z,16.33
2024-05-09T19:33:04.511Z,16.67
2024-05-09T19:35:31.204Z,15.57
2024-05-09T19:37:57.771Z,17.10
2024-05-09T19:40:30.449Z,17.45
2024-05-09T19:42:59.490Z,16.25
2024-05-09T19:45:26.117Z,16.95
2024-05-09T19:47:52.812Z,18.10
2024-05-09T19:50:26.813Z,21.10
2024-05-09T19:53:02.055Z,23.05
2024-05-09T19:55:28.521Z,19.75
2024-05-09T19:57:55.046Z,15.48
2024-05-09T20:00:26.680Z,16.48
2024-05-09T20:02:59.330Z,15.68
2024-05-09T20:05:27.299Z,15.52
2024-05-09T20:07:55.040Z,15.20
2024-05-09T20:10:24.157Z,15.77
2024-05-09T20:12:56.014Z,15.43
2024-05-09T20:15:22.496Z,16.27
2024-05-09T20:17:49.109Z,16.15
2024-05-09T20:20:27.299Z,16.38
2024-05-09T20:22:59.865Z,16.35
2024-05-09T20:25:26.438Z,18.48
2024-05-09T20:27:52.987Z,18.58
2024-05-09T20:30:25.587Z,20.13
2024-05-09T20:32:58.118Z,19.38
2024-05-09T20:35:26.304Z,21.40
2024-05-09T20:37:52.828Z,21.20
2024-05-09T20:40:26.096Z,21.08
2024-05-09T20:42:58.850Z,22.98
2024-05-09T20:45:25.450Z,20.75
2024-05-09T20:47:52.174Z,21.83
2024-05-09T20:50:27.982Z,20.55
2024-05-09T20:53:02.373Z,19.13
2024-05-09T20:55:29.831Z,20.02
2024-05-09T20:57:56.683Z,20.95
2024-05-09T21:00:30.071Z,20.60
2024-05-09T21:03:04.873Z,22.00
2024-05-09T21:05:31.738Z,17.75
2024-05-09T21:07:58.399Z,14.60
2024-05-09T21:10:26.847Z,15.85
2024-05-09T21:12:53.864Z,16.38
2024-05-09T21:15:20.356Z,16.08
2024-05-09T21:17:46.940Z,16.85
2024-05-09T21:20:17.485Z,17.45
2024-05-09T21:22:47.345Z,16.60
2024-05-09T21:25:14.055Z,17.02
2024-05-09T21:27:40.887Z,21.23
2024-05-09T21:30:12.927Z,20.92
2024-05-09T21:32:44.947Z,19.95
2024-05-09T21:35:11.606Z,18.40
2024-05-09T21:37:38.236Z,17.38
2024-05-09T21:40:09.568Z,16.30
2024-05-09T21:42:40.113Z,16.25
2024-05-09T21:45:06.749Z,17.15
2024-05-09T21:47:34.655Z,17.48
2024-05-09T21:50:01.208Z,16.98
2024-05-09T21:52:27.690Z,16.08
2024-05-09T21:54:54.195Z,17.63
2024-05-09T21:57:21.822Z,19.38
2024-05-09T21:59:48.283Z,18.83
2024-05-09T22:02:15.093Z,16.40
2024-05-09T22:04:41.779Z,15.15
2024-05-09T22:07:09.237Z,16.67
2024-05-09T22:09:35.815Z,16.83
2024-05-09T22:12:02.554Z,14.82
2024-05-09T22:14:29.129Z,15.73
2024-05-09T22:16:55.637Z,17.23
2024-05-09T22:19:22.197Z,15.55
2024-05-09T22:21:49.080Z,16.60
2024-05-09T22:24:15.592Z,15.63
2024-05-09T22:26:42.079Z,16.25
2024-05-09T22:29:08.578Z,16.67
2024-05-09T22:31:35.163Z,16.25
2024-05-09T22:34:01.818Z,16.55
2024-05-09T22:36:28.423Z,17.35
2024-05-09T22:38:54.884Z,16.42
2024-05-09T22:41:21.333Z,15.55
2024-05-09T22:43:47.836Z,15.95
2024-05-09T22:46:14.311Z,16.17
2024-05-09T22:48:40.942Z,17.20
2024-05-09T22:51:07.527Z,16.30
2024-05-09T22:53:34.018Z,15.65
2024-05-09T22:56:00.554Z,15.90
2024-05-09T22:58:27.109Z,17.15
2024-05-09T23:00:53.926Z,16.75
2024-05-09T23:03:21.917Z,16.23
2024-05-09T23:05:49.203Z,15.80
2024-05-09T23:08:16.045Z,15.85
2024-05-09T23:10:42.554Z,16.33
2024-05-09T23:13:09.260Z,17.00
2024-05-09T23:15:36.117Z,16.52
2024-05-09T23:18:02.781Z,16.83
2024-05-09T23:20:36.415Z,16.75
2024-05-09T23:23:06.418Z,16.23
2024-05-09T23:25:33.048Z,16.73
2024-05-09T23:27:59.752Z,17.30
2024-05-09T23:30:36.107Z,15.95
2024-05-09T23:33:06.152Z,15.98
2024-05-09T23:35:32.825Z,18.02
2024-05-09T23:37:59.357Z,18.50
2024-05-09T23:40:36.901Z,18.27
2024-05-09T23:43:06.586Z,18.95
2024-05-09T23:45:33.341Z,17.10
2024-05-09T23:48:00.052Z,18.40
2024-05-09T23:50:33.920Z,17.45
2024-05-09T23:53:03.472Z,17.30
2024-05-09T23:55:31.216Z,19.15
2024-05-09T23:57:58.107Z,17.27
